Time;durP1;ratioP1;P1;durP2;ratioP2;P2;SDS_P1;SDS_P2;PMS_P1;PMS_P2;Temp;Humidity;BMP_temperature;BMP_pressure;BME280_temperature;BME280_humidity;BME280_pressure;Samples;Min_cycle;Max_cycle;Signal;HPM_P1;HPM_P2
2021/11/25 01:18:26;;;;;;;9.23;8.43;;;4.90;99.90;;;;;;7267047;19;20368;-79
2021/11/25 01:21:04;;;;;;;9.85;8.80;;;4.90;99.90;;;;;;7414721;19;20376;-80
2021/11/25 01:49:51;;;;;;;8.87;7.97;;;4.80;99.90;;;;;;7330962;19;20332;-81
2021/11/25 01:52:26;;;;;;;8.65;7.75;;;4.70;99.90;;;;;;7404613;19;20337;-80
2021/11/25 03:21:19;;;;;;;8.98;7.97;;;4.50;99.90;;;;;;7370832;19;20336;-81
2021/11/25 03:30:12;;;;;;;7.20;6.50;;;4.60;99.90;;;;;;7289403;19;20406;31
2021/11/25 03:39:02;;;;;;;8.13;7.30;;;4.50;99.90;;;;;;7296163;19;20366;-80
2021/11/25 03:42:03;;;;;;;9.40;7.45;;;4.50;99.90;;;;;;7290483;19;20320;-78
2021/11/25 04:29:36;;;;;;;7.75;7.00;;;4.20;99.90;;;;;;7412198;19;20333;-80
2021/11/25 04:50:05;;;;;;;6.40;5.85;;;4.20;99.90;;;;;;7375101;19;20369;-79
2021/11/25 04:52:36;;;;;;;6.18;5.57;;;4.20;99.90;;;;;;7413299;19;20337;-79
2021/11/25 04:55:06;;;;;;;6.35;5.75;;;4.30;99.90;;;;;;7319019;19;20364;-78
2021/11/25 05:00:32;;;;;;;7.30;6.55;;;4.20;99.90;;;;;;7328176;19;20348;-79
2021/11/25 05:03:08;;;;;;;8.00;7.20;;;4.20;99.90;;;;;;7371908;19;20321;-78
2021/11/25 05:05:58;;;;;;;7.40;6.30;;;4.10;99.90;;;;;;7364485;19;20321;-79
2021/11/25 05:08:32;;;;;;;7.97;7.22;;;4.10;99.90;;;;;;7379993;19;20409;-79
2021/11/25 05:17:20;;;;;;;7.55;6.75;;;3.90;99.90;;;;;;7368749;19;20332;-82
2021/11/25 05:20:48;;;;;;;8.30;7.43;;;3.80;99.90;;;;;;7140619;19;2004383;-80
2021/11/25 05:36:50;;;;;;;7.32;6.60;;;3.90;99.90;;;;;;7314688;19;2004447;-80
2021/11/25 05:40:14;;;;;;;7.32;6.45;;;3.90;99.90;;;;;;7417817;19;20708;-81
2021/11/25 06:35:35;;;;;;;7.88;7.00;;;3.80;99.90;;;;;;7408935;19;20345;-89
2021/11/25 06:38:02;;;;;;;5.83;5.27;;;3.70;99.90;;;;;;7411381;19;20713;-85
2021/11/25 06:40:29;;;;;;;6.30;5.73;;;3.70;99.90;;;;;;7412669;19;20340;-85
2021/11/25 06:42:56;;;;;;;7.72;6.63;;;3.70;99.90;;;;;;7407692;19;20315;-83
2021/11/25 06:45:22;;;;;;;9.82;7.38;;;3.70;99.90;;;;;;7410016;19;20328;-84
2021/11/25 06:47:48;;;;;;;7.85;7.05;;;3.60;99.90;;;;;;7412204;19;20304;-86
2021/11/25 06:50:15;;;;;;;7.15;6.45;;;3.60;99.90;;;;;;7411354;19;21473;-86
2021/11/25 06:52:41;;;;;;;8.30;7.22;;;3.60;99.90;;;;;;7411648;19;20312;-88
2021/11/25 06:55:08;;;;;;;7.07;6.38;;;3.60;99.90;;;;;;7419600;19;20301;-86
2021/11/25 06:57:35;;;;;;;6.53;5.93;;;3.60;99.90;;;;;;7416763;19;20354;-89
2021/11/25 07:00:09;;;;;;;8.65;6.72;;;3.60;99.90;;;;;;7414216;19;20332;-89
2021/11/25 07:02:36;;;;;;;6.88;6.28;;;3.70;99.90;;;;;;7416558;19;20699;-87
2021/11/25 07:05:02;;;;;;;6.88;6.20;;;3.70;99.90;;;;;;7391298;19;20372;-88
2021/11/25 07:07:29;;;;;;;8.85;6.90;;;3.70;99.90;;;;;;7409987;19;20331;-88
2021/11/25 07:09:54;;;;;;;7.82;7.00;;;3.70;99.90;;;;;;7411264;19;20313;-85
2021/11/25 07:12:20;;;;;;;9.67;8.67;;;3.70;99.90;;;;;;7409225;19;20324;-90
2021/11/25 07:14:46;;;;;;;9.57;8.60;;;3.70;99.90;;;;;;7407537;19;20313;-83
2021/11/25 07:17:12;;;;;;;7.20;6.50;;;3.80;99.90;;;;;;7409083;19;20304;-82
2021/11/25 07:19:38;;;;;;;8.75;6.90;;;3.70;99.90;;;;;;7404684;19;20344;-86
2021/11/25 07:22:04;;;;;;;7.60;6.45;;;3.70;99.90;;;;;;7408147;19;20354;-81
2021/11/25 07:24:30;;;;;;;7.07;6.15;;;3.80;99.90;;;;;;7413464;19;20305;-85
2021/11/25 07:26:57;;;;;;;6.77;6.07;;;3.70;99.90;;;;;;7415050;19;20599;-86
2021/11/25 07:29:23;;;;;;;9.95;7.10;;;3.70;99.90;;;;;;7413619;19;20304;-87
2021/11/25 07:31:48;;;;;;;7.13;6.43;;;3.70;99.90;;;;;;7415989;19;20324;-87
2021/11/25 07:34:14;;;;;;;7.80;7.00;;;3.70;99.90;;;;;;7411800;19;20332;-84
2021/11/25 07:36:41;;;;;;;8.47;7.57;;;3.70;99.90;;;;;;7421032;19;20315;-82
2021/11/25 07:39:07;;;;;;;8.65;7.18;;;3.70;99.90;;;;;;7408680;19;20320;-87
2021/11/25 07:41:33;;;;;;;8.38;7.03;;;3.70;99.90;;;;;;7404282;19;20352;-80
2021/11/25 07:43:59;;;;;;;8.45;7.65;;;3.70;99.90;;;;;;7416854;19;20357;-87
2021/11/25 07:46:26;;;;;;;8.23;7.43;;;3.60;99.90;;;;;;7418213;19;20325;-87
2021/11/25 07:48:55;;;;;;;9.20;7.93;;;3.70;99.90;;;;;;7419266;19;20340;-85
2021/11/25 07:51:22;;;;;;;8.27;7.25;;;3.70;99.90;;;;;;7407586;19;20315;-80
2021/11/25 07:53:48;;;;;;;13.17;8.13;;;3.70;99.90;;;;;;7397929;19;20444;-83
2021/11/25 07:56:13;;;;;;;8.27;7.47;;;3.70;99.90;;;;;;7392433;19;20340;-82
2021/11/25 07:58:39;;;;;;;9.20;8.13;;;3.70;99.90;;;;;;7392915;19;20304;-80
2021/11/25 08:01:05;;;;;;;9.32;8.32;;;3.70;99.90;;;;;;7395523;19;20388;-78
2021/11/25 08:03:30;;;;;;;8.60;7.70;;;3.70;99.90;;;;;;7393593;19;20345;-79
2021/11/25 08:05:56;;;;;;;9.77;8.25;;;3.80;99.90;;;;;;7396346;19;20313;-79
2021/11/25 08:08:22;;;;;;;10.03;8.70;;;3.70;99.90;;;;;;7396567;19;20321;-79
2021/11/25 08:10:47;;;;;;;10.75;8.50;;;3.70;99.90;;;;;;7396260;19;20772;-78
2021/11/25 08:13:13;;;;;;;14.07;10.82;;;3.80;99.90;;;;;;7395508;19;20327;-81
2021/11/25 08:15:39;;;;;;;14.50;11.70;;;3.70;99.90;;;;;;7394531;19;20346;-79
2021/11/25 08:18:05;;;;;;;9.73;8.75;;;3.70;99.90;;;;;;7393196;19;20665;-79
2021/11/25 08:20:31;;;;;;;11.60;10.40;;;3.70;99.90;;;;;;7393281;19;20345;-79
2021/11/25 08:22:56;;;;;;;10.97;9.27;;;3.70;99.90;;;;;;7396222;19;20347;-80
2021/11/25 08:25:23;;;;;;;11.23;9.60;;;3.80;99.90;;;;;;7394249;19;20305;-78
2021/11/25 08:27:50;;;;;;;10.95;9.45;;;3.60;99.90;;;;;;7394671;19;20358;-81
2021/11/25 08:30:16;;;;;;;10.73;9.13;;;3.60;99.90;;;;;;7394038;19;20301;-79
2021/11/25 08:32:42;;;;;;;11.02;9.93;;;3.70;99.90;;;;;;7393430;19;20309;-85
2021/11/25 08:35:08;;;;;;;11.40;10.15;;;3.70;99.90;;;;;;7374417;19;20318;-79
2021/11/25 08:37:34;;;;;;;11.85;10.32;;;3.70;99.90;;;;;;7394072;19;20305;-78
2021/11/25 08:40:00;;;;;;;11.10;9.90;;;3.70;99.90;;;;;;7392330;19;20316;-82
2021/11/25 08:42:26;;;;;;;11.33;9.60;;;3.70;99.90;;;;;;7398995;19;20316;-79
2021/11/25 08:44:51;;;;;;;14.30;10.48;;;3.80;99.90;;;;;;7397324;19;20466;-80
2021/11/25 08:47:18;;;;;;;12.53;10.90;;;3.80;99.90;;;;;;7402782;19;20320;-80
2021/11/25 08:49:43;;;;;;;11.93;10.52;;;3.80;99.90;;;;;;7403516;19;20323;-79
2021/11/25 08:52:09;;;;;;;14.00;11.73;;;3.80;99.90;;;;;;7400475;19;20313;-80
2021/11/25 08:54:35;;;;;;;12.85;10.93;;;3.90;99.90;;;;;;7404303;19;20356;-80
2021/11/25 08:57:00;;;;;;;12.18;10.27;;;3.90;99.90;;;;;;7405384;19;20328;-80
2021/11/25 08:59:26;;;;;;;12.63;11.33;;;3.90;99.90;;;;;;7401411;19;20324;-80
2021/11/25 09:01:52;;;;;;;12.45;11.18;;;3.90;99.90;;;;;;7374559;19;20337;-80
2021/11/25 09:04:18;;;;;;;12.20;10.88;;;3.90;99.90;;;;;;7396141;19;20312;-82
2021/11/25 09:06:44;;;;;;;13.27;11.07;;;3.90;99.90;;;;;;7367337;19;20317;-80
2021/11/25 09:09:09;;;;;;;12.83;10.87;;;4.00;99.90;;;;;;7391317;19;20424;-78
2021/11/25 09:11:37;;;;;;;14.40;11.02;;;4.00;99.90;;;;;;7393878;19;20316;-81
2021/11/25 09:14:03;;;;;;;12.93;10.68;;;4.00;99.90;;;;;;7384524;19;20301;-81
2021/11/25 09:16:29;;;;;;;12.63;11.32;;;4.00;99.90;;;;;;7392255;19;20360;-79
2021/11/25 09:18:55;;;;;;;15.67;13.30;;;4.00;99.90;;;;;;7391265;19;20316;-80
2021/11/25 09:21:22;;;;;;;12.77;11.27;;;4.00;99.90;;;;;;7386964;19;20305;-79
2021/11/25 09:23:56;;;;;;;12.63;11.30;;;4.00;99.90;;;;;;7397789;19;20316;-81
2021/11/25 09:27:16;;;;;;;12.35;10.65;;;4.10;99.90;;;;;;7249296;19;2004426;-80
2021/11/25 09:30:05;;;;;;;12.55;10.55;;;4.00;99.90;;;;;;7184296;19;2004285;-80
2021/11/25 09:32:31;;;;;;;12.45;11.15;;;4.00;99.90;;;;;;7389542;19;20654;-79
2021/11/25 09:34:56;;;;;;;14.97;11.80;;;4.00;99.90;;;;;;7388301;19;20903;-80
2021/11/25 09:37:22;;;;;;;12.07;10.88;;;3.90;99.90;;;;;;7388263;19;20323;-80
2021/11/25 09:39:47;;;;;;;12.23;10.37;;;3.90;99.90;;;;;;7392829;19;20335;-81
2021/11/25 09:42:14;;;;;;;12.70;11.35;;;3.90;99.90;;;;;;7387740;19;20345;-80
2021/11/25 09:44:40;;;;;;;11.77;10.55;;;3.80;99.90;;;;;;7392611;19;20313;-80
2021/11/25 09:47:06;;;;;;;12.18;10.88;;;3.90;99.90;;;;;;7386663;19;20328;-81
2021/11/25 09:49:31;;;;;;;12.45;10.65;;;3.90;99.90;;;;;;7384336;19;20320;-81
2021/11/25 09:51:57;;;;;;;13.30;10.90;;;3.90;99.90;;;;;;7391430;19;20331;-80
2021/11/25 09:54:23;;;;;;;10.30;9.20;;;3.90;99.90;;;;;;7363861;19;20316;-80
2021/11/25 09:56:49;;;;;;;13.77;11.50;;;3.80;99.90;;;;;;7387116;19;20327;-82
2021/11/25 09:59:15;;;;;;;14.07;11.48;;;3.80;99.90;;;;;;7387501;19;20910;-81
2021/11/25 10:01:40;;;;;;;12.63;10.80;;;3.80;99.90;;;;;;7366404;19;20351;-80
2021/11/25 10:04:06;;;;;;;12.88;10.70;;;3.80;99.90;;;;;;7365422;19;20313;-79
2021/11/25 10:06:37;;;;;;;12.27;11.07;;;3.80;99.90;;;;;;7384027;19;20349;-79
2021/11/25 10:09:03;;;;;;;11.93;10.15;;;3.80;99.90;;;;;;7383770;19;20676;-80
2021/11/25 10:11:31;;;;;;;12.45;10.88;;;3.70;99.90;;;;;;7402986;19;20380;-79
2021/11/25 10:14:02;;;;;;;10.85;9.60;;;3.70;99.90;;;;;;7376998;19;21121;-80
2021/11/25 10:16:29;;;;;;;12.30;11.00;;;3.80;99.90;;;;;;7392481;19;20304;-80
2021/11/25 10:18:58;;;;;;;14.48;11.50;;;3.60;99.90;;;;;;7389915;19;20323;-80
2021/11/25 10:21:27;;;;;;;14.52;11.65;;;3.60;99.90;;;;;;7390299;19;20462;-80
2021/11/25 10:23:54;;;;;;;13.05;11.63;;;3.60;99.90;;;;;;7388739;19;20383;-80
2021/11/25 10:26:21;;;;;;;11.48;10.25;;;3.60;99.90;;;;;;7384598;19;20309;-78
2021/11/25 10:28:51;;;;;;;12.70;10.93;;;3.60;99.90;;;;;;7362420;19;20327;-81
2021/11/25 10:31:32;;;;;;;12.63;10.23;;;3.50;99.90;;;;;;7385604;19;20331;-81
2021/11/25 10:34:07;;;;;;;12.88;11.07;;;3.50;99.90;;;;;;7384428;19;20380;-80
2021/11/25 10:36:52;;;;;;;16.75;13.43;;;3.50;99.90;;;;;;7387892;19;20363;-80
2021/11/25 10:41:49;;;;;;;12.85;10.73;;;3.50;99.90;;;;;;7386003;19;20732;-79
2021/11/25 10:44:22;;;;;;;14.30;11.52;;;3.50;99.90;;;;;;7385083;19;20384;-79
2021/11/25 10:46:55;;;;;;;18.10;13.23;;;3.60;99.90;;;;;;7384275;19;20317;-79
2021/11/25 10:49:35;;;;;;;16.38;13.05;;;3.60;99.90;;;;;;7380776;19;20296;-78
2021/11/25 10:52:01;;;;;;;14.20;11.63;;;3.60;99.90;;;;;;7279254;19;2020041;-78
2021/11/25 10:54:27;;;;;;;11.98;10.68;;;3.60;99.90;;;;;;7381198;19;20317;-79
2021/11/25 10:56:56;;;;;;;13.90;11.23;;;3.60;99.90;;;;;;7381462;19;20701;-77
2021/11/25 10:59:35;;;;;;;12.90;10.95;;;3.60;99.90;;;;;;7382626;19;21224;-78
2021/11/25 11:02:01;;;;;;;12.43;10.20;;;3.60;99.90;;;;;;7387137;19;20316;-79
2021/11/25 11:04:28;;;;;;;10.87;9.77;;;3.60;99.90;;;;;;7386404;19;20318;-78
2021/11/25 11:06:55;;;;;;;10.23;9.23;;;3.60;99.90;;;;;;7388867;19;20701;-79
2021/11/25 11:09:28;;;;;;;10.73;9.63;;;3.50;99.90;;;;;;7388734;19;20409;-79
2021/11/25 11:12:17;;;;;;;10.55;9.50;;;3.50;99.90;;;;;;7391131;19;20335;-77
2021/11/25 11:14:51;;;;;;;11.23;9.65;;;3.50;99.90;;;;;;7287433;19;2009783;-78
2021/11/25 11:17:31;;;;;;;12.17;10.40;;;3.50;99.90;;;;;;7390720;19;20628;-77
2021/11/25 11:20:06;;;;;;;13.48;9.88;;;3.50;99.90;;;;;;7389997;19;20313;-78
2021/11/25 11:22:34;;;;;;;10.27;9.27;;;3.50;99.90;;;;;;7390191;19;20426;-78
2021/11/25 11:25:00;;;;;;;10.30;9.20;;;3.50;99.90;;;;;;7390161;19;20345;-80
2021/11/25 11:27:26;;;;;;;11.60;10.00;;;3.50;99.90;;;;;;7390848;19;20413;-79
2021/11/25 11:29:52;;;;;;;11.70;9.43;;;3.50;99.90;;;;;;7404714;19;20305;-80
2021/11/25 11:32:17;;;;;;;13.63;10.67;;;3.60;99.90;;;;;;7402599;19;20448;-79
2021/11/25 11:34:43;;;;;;;10.90;9.45;;;3.70;99.90;;;;;;7397414;19;20382;-78
2021/11/25 11:37:11;;;;;;;11.50;9.10;;;3.60;99.90;;;;;;7394639;19;20405;-79
2021/11/25 11:39:36;;;;;;;10.05;8.95;;;3.60;99.90;;;;;;7391040;19;20322;-78
2021/11/25 11:42:02;;;;;;;9.75;8.55;;;3.60;99.90;;;;;;7388378;19;20359;-79
2021/11/25 11:44:28;;;;;;;12.55;9.20;;;3.60;99.90;;;;;;7395145;19;20329;-78
2021/11/25 11:47:01;;;;;;;11.60;9.13;;;3.60;99.90;;;;;;7390757;19;20703;-78
2021/11/25 11:49:27;;;;;;;11.95;9.65;;;3.60;99.90;;;;;;7385795;19;20850;-79
2021/11/25 11:52:02;;;;;;;10.40;9.40;;;3.60;99.90;;;;;;7387190;19;20321;-80
2021/11/25 11:54:28;;;;;;;11.23;9.53;;;3.60;99.90;;;;;;7387796;19;20374;-79
2021/11/25 11:56:55;;;;;;;9.80;8.80;;;3.60;99.90;;;;;;7387320;19;21213;-78
2021/11/25 11:59:21;;;;;;;10.52;9.13;;;3.60;99.90;;;;;;7387028;19;20733;-79
2021/11/25 12:01:51;;;;;;;10.70;9.07;;;3.60;99.90;;;;;;7388106;19;20844;-79
2021/11/25 12:04:16;;;;;;;12.57;9.53;;;3.50;99.90;;;;;;7386895;19;24754;-78
2021/11/25 12:06:44;;;;;;;10.73;9.53;;;3.50;99.90;;;;;;7389269;19;20380;-80
2021/11/25 12:09:29;;;;;;;11.00;9.70;;;3.50;99.90;;;;;;7388866;19;20312;-79
2021/11/25 12:12:08;;;;;;;11.65;9.63;;;3.50;99.90;;;;;;7287243;19;2020001;-78
2021/11/25 12:14:33;;;;;;;11.57;8.93;;;3.50;99.90;;;;;;7388106;19;20332;-77
2021/11/25 12:17:08;;;;;;;11.93;9.80;;;3.60;99.90;;;;;;7390754;19;20329;-78
2021/11/25 12:19:43;;;;;;;11.55;9.70;;;3.50;99.90;;;;;;7280706;19;2009047;-78
2021/11/25 12:22:14;;;;;;;10.88;9.65;;;3.50;99.90;;;;;;7389615;19;20309;-78
2021/11/25 12:24:48;;;;;;;13.18;10.43;;;3.50;99.90;;;;;;7390292;19;20320;-78
2021/11/25 12:27:26;;;;;;;12.25;9.77;;;3.60;99.90;;;;;;7387201;19;20320;-79
2021/11/25 12:29:58;;;;;;;12.07;10.75;;;3.50;99.90;;;;;;7366456;19;20326;-79
2021/11/25 12:32:48;;;;;;;11.48;9.48;;;3.60;99.90;;;;;;7388607;19;20640;-79
2021/11/25 12:35:21;;;;;;;11.43;9.18;;;3.50;99.90;;;;;;7387931;19;20317;-81
2021/11/25 12:37:51;;;;;;;10.57;9.10;;;3.50;99.90;;;;;;7387295;19;20345;-78
2021/11/25 12:40:17;;;;;;;10.30;9.07;;;3.50;99.90;;;;;;7389171;19;20320;-78
2021/11/25 12:42:43;;;;;;;10.73;9.13;;;3.60;99.90;;;;;;7390186;19;20300;-79
2021/11/25 12:45:26;;;;;;;11.73;9.75;;;3.60;99.90;;;;;;7385842;19;20328;-79
2021/11/25 12:48:11;;;;;;;10.45;8.75;;;3.50;99.90;;;;;;7407969;19;20337;-79
2021/11/25 12:50:43;;;;;;;9.90;8.73;;;3.60;99.90;;;;;;7297548;19;2007109;-78
2021/11/25 12:53:13;;;;;;;9.93;8.90;;;3.60;99.90;;;;;;7389464;19;20309;-80
2021/11/25 12:55:39;;;;;;;12.15;9.20;;;3.70;99.90;;;;;;7389841;19;20312;-83
2021/11/25 12:58:04;;;;;;;9.50;8.50;;;3.70;99.90;;;;;;7389695;19;20328;-80
2021/11/25 13:00:33;;;;;;;11.57;9.70;;;3.70;99.90;;;;;;7390927;19;20300;-78
2021/11/25 13:03:18;;;;;;;10.00;8.65;;;3.60;99.90;;;;;;7390183;19;20355;-79
2021/11/25 13:05:44;;;;;;;10.10;9.07;;;3.60;99.90;;;;;;7390411;19;20312;-81
2021/11/25 13:08:10;;;;;;;9.23;8.07;;;3.60;99.90;;;;;;7389470;19;20317;-81
2021/11/25 13:10:38;;;;;;;9.52;8.52;;;3.70;99.90;;;;;;7388081;19;20304;-79
2021/11/25 13:13:16;;;;;;;10.38;8.85;;;3.60;99.90;;;;;;7388660;19;20317;-81
2021/11/25 13:16:02;;;;;;;10.90;9.63;;;3.60;99.90;;;;;;7388871;19;20333;-79
2021/11/25 13:18:42;;;;;;;9.90;8.73;;;3.60;99.90;;;;;;7284680;19;2004409;-80
2021/11/25 13:21:44;;;;;;;48.70;36.58;;;3.60;99.90;;;;;;7282556;19;2004413;-80
2021/11/25 13:24:29;;;;;;;56.20;41.17;;;3.50;99.90;;;;;;7279531;19;2005400;-78
2021/11/25 13:27:04;;;;;;;24.23;21.00;;;3.50;99.90;;;;;;7282630;19;2004696;-78
2021/11/25 13:29:38;;;;;;;11.40;10.13;;;3.50;99.90;;;;;;7384304;19;20316;-78
2021/11/25 13:32:12;;;;;;;11.73;10.15;;;3.60;99.90;;;;;;7383881;19;20380;-79
2021/11/25 13:34:38;;;;;;;13.05;11.20;;;3.50;99.90;;;;;;7387001;19;20316;-78
2021/11/25 13:37:05;;;;;;;11.27;9.48;;;3.50;99.90;;;;;;7386962;19;20316;-78
2021/11/25 13:39:42;;;;;;;13.82;11.65;;;3.60;99.90;;;;;;7388158;19;20421;-78
2021/11/25 13:42:12;;;;;;;11.00;9.40;;;3.60;99.90;;;;;;7389055;19;20866;-78
2021/11/25 13:44:46;;;;;;;10.68;9.45;;;3.60;99.90;;;;;;7386259;19;20325;-78
2021/11/25 13:47:20;;;;;;;11.75;8.98;;;3.60;99.90;;;;;;7384587;19;20312;-78
2021/11/25 13:49:55;;;;;;;11.13;8.80;;;3.60;99.90;;;;;;7382012;19;20379;-79
2021/11/25 13:52:29;;;;;;;10.98;9.75;;;3.60;99.90;;;;;;7384272;19;20681;-78
2021/11/25 13:54:54;;;;;;;11.65;10.45;;;3.50;99.90;;;;;;7383447;19;20316;-79
2021/11/25 13:57:20;;;;;;;12.18;9.35;;;3.60;99.90;;;;;;7382371;19;20331;-78
2021/11/25 13:59:46;;;;;;;15.23;13.00;;;3.60;99.90;;;;;;7378603;19;21086;-78
2021/11/25 14:02:15;;;;;;;13.82;10.50;;;3.60;99.90;;;;;;7384783;19;20313;-78
2021/11/25 14:04:41;;;;;;;14.80;12.50;;;3.50;99.90;;;;;;7393134;19;20311;-78
2021/11/25 14:07:09;;;;;;;13.53;9.70;;;3.50;99.90;;;;;;7395837;19;20803;-80
2021/11/25 14:09:35;;;;;;;11.60;9.75;;;3.50;99.90;;;;;;7392155;19;20333;-79
2021/11/25 14:12:04;;;;;;;15.77;9.73;;;3.60;99.90;;;;;;7391709;19;21300;-80
2021/11/25 14:14:33;;;;;;;12.57;10.13;;;3.60;99.90;;;;;;7393432;19;20980;-80
2021/11/25 14:16:59;;;;;;;13.30;9.88;;;3.50;99.90;;;;;;7388152;19;20361;-78
2021/11/25 14:19:25;;;;;;;11.93;8.93;;;3.50;99.90;;;;;;7359872;19;20301;-79
2021/11/25 14:21:55;;;;;;;10.38;9.27;;;3.40;99.90;;;;;;7385864;19;20296;-79
2021/11/25 14:24:23;;;;;;;11.18;9.45;;;3.40;99.90;;;;;;7387392;19;20361;-79
2021/11/25 14:30:05;;;;;;;9.73;8.73;;;3.40;99.90;;;;;;7383791;19;20320;-78
2021/11/25 14:30:31;;;;;;;9.18;8.20;;;3.40;99.90;;;;;;7287003;19;2004412;-78
2021/11/25 14:33:05;;;;;;;10.70;9.15;;;3.40;99.90;;;;;;7383495;19;20328;-80
2021/11/25 14:35:41;;;;;;;9.80;8.27;;;3.40;99.90;;;;;;7382861;19;20883;-79
2021/11/25 14:38:21;;;;;;;11.50;9.60;;;3.40;99.90;;;;;;7382012;19;20312;-80
2021/11/25 14:40:51;;;;;;;11.15;9.32;;;3.30;99.90;;;;;;7382139;19;20317;-79
2021/11/25 14:43:23;;;;;;;11.40;9.70;;;3.30;99.90;;;;;;7386753;19;20335;-79
2021/11/25 14:45:52;;;;;;;11.95;9.55;;;3.30;99.90;;;;;;7390916;19;21076;-81
2021/11/25 14:48:22;;;;;;;9.90;8.75;;;3.30;99.90;;;;;;7389406;19;20338;-80
2021/11/25 14:50:54;;;;;;;10.27;9.18;;;3.30;99.90;;;;;;7390978;19;20304;-81
2021/11/25 14:53:20;;;;;;;14.70;11.48;;;3.30;99.90;;;;;;7389368;19;20351;-79
2021/11/25 14:55:54;;;;;;;12.13;10.43;;;3.40;99.90;;;;;;7392874;19;20763;-79
2021/11/25 14:58:20;;;;;;;18.17;14.10;;;3.30;99.90;;;;;;7390707;19;20327;-79
2021/11/25 15:00:46;;;;;;;19.03;15.43;;;3.40;99.90;;;;;;7390607;19;20687;-80
2021/11/25 15:03:12;;;;;;;12.40;9.45;;;3.30;99.90;;;;;;7388644;19;20322;-81
2021/11/25 15:05:45;;;;;;;10.80;9.35;;;3.30;99.90;;;;;;7387106;19;20340;-81
2021/11/25 15:08:19;;;;;;;10.93;9.75;;;3.30;99.90;;;;;;7391207;19;20321;-82
2021/11/25 15:10:56;;;;;;;9.85;8.88;;;3.30;99.90;;;;;;7286514;19;2009300;-80
2021/11/25 15:13:22;;;;;;;11.40;9.40;;;3.30;99.90;;;;;;7286918;19;2004602;-82
2021/11/25 15:15:54;;;;;;;17.42;13.40;;;3.30;99.90;;;;;;7394790;19;20339;-83
2021/11/25 15:18:22;;;;;;;13.32;11.05;;;3.30;99.90;;;;;;7392407;19;20349;-80
2021/11/25 15:20:48;;;;;;;28.33;20.57;;;3.30;99.90;;;;;;7391376;19;20329;-82
2021/11/25 15:23:14;;;;;;;14.20;12.63;;;3.30;99.90;;;;;;7393282;19;20328;-81
2021/11/25 15:25:42;;;;;;;11.90;10.30;;;3.30;99.90;;;;;;7388761;19;20878;-82
2021/11/25 15:28:08;;;;;;;11.23;9.88;;;3.30;99.90;;;;;;7370214;19;20380;-84
2021/11/25 15:30:34;;;;;;;10.55;9.45;;;3.20;99.90;;;;;;7380543;19;20339;-81
2021/11/25 15:33:06;;;;;;;12.15;9.95;;;3.20;99.90;;;;;;7384835;19;20309;-80
2021/11/25 15:35:38;;;;;;;11.60;10.40;;;3.20;99.90;;;;;;7392664;19;20355;-79
2021/11/25 15:38:05;;;;;;;12.77;10.07;;;3.30;99.90;;;;;;7390130;19;20316;-81
2021/11/25 15:40:32;;;;;;;10.43;9.32;;;3.30;99.90;;;;;;7388736;19;20332;-78
2021/11/25 15:42:57;;;;;;;13.35;10.95;;;3.40;99.90;;;;;;7396454;19;20312;-78
2021/11/25 15:45:23;;;;;;;14.17;10.37;;;3.30;99.90;;;;;;7387273;19;20332;-79
2021/11/25 15:47:49;;;;;;;12.77;10.95;;;3.30;99.90;;;;;;7384557;19;20324;-79
2021/11/25 15:50:14;;;;;;;11.27;10.07;;;3.30;99.90;;;;;;7384885;19;20376;-78
2021/11/25 15:52:40;;;;;;;9.05;8.13;;;3.20;99.90;;;;;;7386423;19;20332;-77
2021/11/25 15:55:08;;;;;;;10.07;9.00;;;3.20;99.90;;;;;;7383554;19;20328;-78
2021/11/25 15:57:33;;;;;;;14.50;11.77;;;3.20;99.90;;;;;;7386279;19;20416;-79
2021/11/25 15:59:59;;;;;;;31.10;22.52;;;3.20;99.90;;;;;;7385702;19;20464;-78
2021/11/25 16:02:25;;;;;;;25.70;19.70;;;3.20;99.90;;;;;;7381914;19;20349;-79
2021/11/25 16:04:50;;;;;;;15.32;11.25;;;3.20;99.90;;;;;;7381466;19;20320;-77
2021/11/25 16:07:17;;;;;;;13.43;11.63;;;3.20;99.90;;;;;;7385311;19;20320;-78
2021/11/25 16:09:42;;;;;;;11.23;9.70;;;3.20;99.90;;;;;;7384678;19;20341;-79
2021/11/25 16:12:08;;;;;;;13.40;9.73;;;3.20;99.90;;;;;;7384913;19;20323;-79
2021/11/25 16:14:42;;;;;;;16.10;11.52;;;3.20;99.90;;;;;;7383912;19;20689;-78
2021/11/25 16:17:08;;;;;;;17.40;11.85;;;3.20;99.90;;;;;;7382299;19;20320;-80
2021/11/25 16:19:33;;;;;;;14.97;12.60;;;3.20;99.90;;;;;;7382482;19;21006;-78
2021/11/25 16:21:59;;;;;;;16.40;12.98;;;3.20;99.90;;;;;;7381295;19;20336;-78
2021/11/25 16:24:25;;;;;;;17.50;14.57;;;3.20;99.90;;;;;;7386105;19;20326;-80
2021/11/25 16:26:50;;;;;;;13.57;12.10;;;3.20;99.90;;;;;;7385592;19;20301;-78
2021/11/25 16:29:18;;;;;;;14.20;12.68;;;3.20;99.90;;;;;;7386725;19;20344;-78
2021/11/25 16:31:44;;;;;;;11.10;9.98;;;3.20;99.90;;;;;;7383699;19;20329;-79
2021/11/25 16:34:10;;;;;;;9.93;9.00;;;3.20;99.90;;;;;;7383116;19;20341;-78
2021/11/25 16:36:35;;;;;;;12.73;9.57;;;3.30;99.90;;;;;;7384500;19;20871;-78
2021/11/25 16:39:01;;;;;;;11.60;9.63;;;3.10;99.90;;;;;;7385469;19;20312;-79
2021/11/25 16:41:27;;;;;;;10.97;9.67;;;3.10;99.90;;;;;;7387221;19;20415;-78
2021/11/25 16:43:52;;;;;;;14.82;11.10;;;3.10;99.90;;;;;;7387038;19;20324;-80
2021/11/25 16:46:28;;;;;;;15.57;12.57;;;3.10;99.90;;;;;;7393255;19;20324;-77
2021/11/25 16:48:53;;;;;;;12.03;10.57;;;3.30;99.90;;;;;;7387854;19;20301;-78
2021/11/25 16:51:21;;;;;;;14.35;11.30;;;3.20;99.90;;;;;;7388303;19;20324;-78
2021/11/25 16:53:48;;;;;;;13.13;11.25;;;3.20;99.90;;;;;;7386961;19;20312;-79
2021/11/25 16:56:14;;;;;;;13.40;10.80;;;3.10;99.90;;;;;;7385292;19;20316;-77
2021/11/25 16:58:39;;;;;;;16.60;11.70;;;3.20;99.90;;;;;;7383737;19;20387;-77
2021/11/25 17:01:09;;;;;;;25.08;18.77;;;3.20;99.90;;;;;;7383441;19;20369;-79
2021/11/25 17:03:35;;;;;;;14.43;11.73;;;3.10;99.90;;;;;;7381304;19;20497;-78
2021/11/25 17:06:01;;;;;;;12.20;11.00;;;3.10;99.90;;;;;;7388337;19;20341;-81
2021/11/25 17:08:32;;;;;;;11.57;10.23;;;3.10;99.90;;;;;;7387841;19;20436;-80
2021/11/25 17:11:00;;;;;;;12.98;11.32;;;3.10;99.90;;;;;;7386365;19;20313;-79
2021/11/25 17:13:27;;;;;;;14.30;10.52;;;3.20;99.90;;;;;;7383604;19;20333;-80
2021/11/25 17:15:53;;;;;;;11.18;9.88;;;3.10;99.90;;;;;;7386152;19;20309;-78
2021/11/25 17:18:19;;;;;;;11.85;9.93;;;3.20;99.90;;;;;;7385713;19;20355;-78
2021/11/25 17:20:45;;;;;;;11.43;10.15;;;3.10;99.90;;;;;;7386903;19;20348;-79
2021/11/25 17:23:11;;;;;;;11.77;9.63;;;3.10;99.90;;;;;;7389296;19;20376;-79
2021/11/25 17:25:37;;;;;;;13.90;10.73;;;3.10;99.90;;;;;;7388163;19;20338;-78
2021/11/25 17:28:02;;;;;;;11.53;10.07;;;3.10;99.90;;;;;;7385737;19;21026;-79
2021/11/25 17:30:29;;;;;;;11.68;10.48;;;3.10;99.90;;;;;;7382297;19;20329;-81
2021/11/25 17:32:56;;;;;;;13.83;12.00;;;3.20;99.90;;;;;;7384608;19;20401;-79
2021/11/25 17:35:22;;;;;;;18.02;12.50;;;3.10;99.90;;;;;;7385945;19;20363;-78
2021/11/25 17:37:48;;;;;;;15.07;11.68;;;3.10;99.90;;;;;;7386161;19;20320;-80
2021/11/25 17:40:13;;;;;;;15.20;12.43;;;3.10;99.90;;;;;;7384888;19;20308;-79
2021/11/25 17:42:39;;;;;;;21.90;13.70;;;3.10;99.90;;;;;;7387114;19;20357;-79
2021/11/25 17:45:06;;;;;;;14.23;11.07;;;3.10;99.90;;;;;;7387637;19;20305;-79
2021/11/25 17:47:32;;;;;;;20.23;13.27;;;3.10;99.90;;;;;;7388669;19;20344;-79
2021/11/25 17:49:58;;;;;;;13.95;11.45;;;3.00;99.90;;;;;;7384448;19;20689;-79
2021/11/25 17:52:23;;;;;;;17.33;12.40;;;3.00;99.90;;;;;;7390273;19;20317;-79
2021/11/25 17:54:49;;;;;;;13.40;11.13;;;3.00;99.90;;;;;;7384491;19;20332;-78
2021/11/25 17:57:15;;;;;;;27.67;20.33;;;3.00;99.90;;;;;;7385470;19;20819;-78
2021/11/25 17:59:41;;;;;;;24.95;18.00;;;3.00;99.90;;;;;;7386021;19;20348;-79
2021/11/25 18:02:08;;;;;;;20.90;15.13;;;3.00;99.90;;;;;;7384956;19;20373;-80
2021/11/25 18:04:35;;;;;;;11.95;10.75;;;2.90;99.90;;;;;;7394222;19;20365;-79
2021/11/25 18:07:02;;;;;;;13.45;10.38;;;2.90;99.90;;;;;;7387620;19;20321;-80
2021/11/25 18:09:27;;;;;;;13.93;11.63;;;2.90;99.90;;;;;;7384989;19;20316;-79
2021/11/25 18:11:53;;;;;;;11.43;10.13;;;2.90;99.90;;;;;;7386280;19;20316;-79
2021/11/25 18:14:19;;;;;;;12.43;10.43;;;2.90;99.90;;;;;;7386121;19;20994;-78
2021/11/25 18:16:45;;;;;;;13.00;11.03;;;2.90;99.90;;;;;;7363433;19;20319;-79
2021/11/25 18:19:11;;;;;;;13.73;11.63;;;2.90;99.90;;;;;;7382366;19;20326;-79
2021/11/25 18:21:37;;;;;;;10.70;9.60;;;3.00;99.90;;;;;;7383892;19;20312;-80
2021/11/25 18:24:07;;;;;;;13.32;11.27;;;2.90;99.90;;;;;;7389149;19;21031;-81
2021/11/25 18:26:34;;;;;;;10.30;9.20;;;2.90;99.90;;;;;;7388676;19;20940;-80
2021/11/25 18:29:00;;;;;;;11.05;9.30;;;2.90;99.90;;;;;;7382250;19;20304;-81
2021/11/25 18:31:26;;;;;;;15.65;12.65;;;2.90;99.90;;;;;;7382767;19;20340;-79
2021/11/25 18:33:52;;;;;;;14.20;10.75;;;2.90;99.90;;;;;;7386182;19;20337;-81
2021/11/25 18:36:19;;;;;;;13.15;11.13;;;2.90;99.90;;;;;;7385466;19;20324;-80
2021/11/25 18:38:45;;;;;;;15.15;10.55;;;2.90;99.90;;;;;;7385450;19;20779;-81